Time;durP1;ratioP1;P1;durP2;ratioP2;P2;SDS_P1;SDS_P2;PMS_P1;PMS_P2;Temp;Humidity;BMP_temperature;BMP_pressure;BME280_temperature;BME280_humidity;BME280_pressure;Samples;Min_cycle;Max_cycle;Signal;HPM_P1;HPM_P2
2022/07/16 00:03:07;;;;;;;1.48;1.00;;;;;;;13.43;100.00;99394.22;5090189;28;20105;-56
2022/07/16 00:05:33;;;;;;;2.30;0.90;;;;;;;13.36;100.00;99388.63;5089995;28;20054;-56
2022/07/16 00:07:59;;;;;;;5.45;0.77;;;;;;;13.16;100.00;99372.28;5089989;28;20408;-55
2022/07/16 00:10:26;;;;;;;1.75;0.80;;;;;;;13.26;100.00;99378.31;5089935;28;20430;-56
2022/07/16 00:12:53;;;;;;;4.30;0.93;;;;;;;13.24;100.00;99375.13;5090041;28;20044;-55
2022/07/16 00:15:19;;;;;;;2.97;0.90;;;;;;;13.02;100.00;99365.81;5089782;28;20104;-54
2022/07/16 00:17:46;;;;;;;3.95;0.80;;;;;;;13.23;100.00;99365.25;5090025;28;20109;-56
2022/07/16 00:20:12;;;;;;;1.40;0.90;;;;;;;13.11;100.00;99369.06;5089768;28;20052;-54
2022/07/16 00:22:38;;;;;;;2.22;0.93;;;;;;;13.17;100.00;99360.09;5089654;28;20058;-55
2022/07/16 00:25:05;;;;;;;5.40;1.10;;;;;;;13.14;100.00;99360.06;5089767;28;20051;-56
2022/07/16 00:27:32;;;;;;;2.78;1.00;;;;;;;13.03;100.00;99351.69;5089596;28;20059;-54
2022/07/16 00:29:59;;;;;;;2.58;1.20;;;;;;;13.23;100.00;99351.50;5089937;28;20052;-52
2022/07/16 00:32:25;;;;;;;1.08;0.85;;;;;;;13.09;100.00;99355.69;5089734;28;20050;-51
2022/07/16 00:34:51;;;;;;;2.63;0.93;;;;;;;13.12;100.00;99330.16;5089554;28;20047;-54
2022/07/16 00:37:17;;;;;;;6.13;1.00;;;;;;;13.02;100.00;99332.81;5089647;28;20131;-53
2022/07/16 00:39:44;;;;;;;3.88;0.70;;;;;;;13.15;100.00;99337.66;5089769;28;20052;-52
2022/07/16 00:42:10;;;;;;;2.67;1.00;;;;;;;13.01;100.00;99318.25;5089470;28;20101;-52
2022/07/16 00:44:37;;;;;;;2.03;1.00;;;;;;;13.06;100.00;99322.63;5089753;28;20055;-53
2022/07/16 00:47:03;;;;;;;2.90;0.93;;;;;;;13.06;100.00;99328.13;5089554;28;20096;-52
2022/07/16 00:49:30;;;;;;;3.53;0.90;;;;;;;12.98;100.00;99312.72;5089662;28;20151;-56
2022/07/16 00:51:56;;;;;;;3.58;1.17;;;;;;;13.12;100.00;99321.09;5089359;28;20052;-52
2022/07/16 00:54:22;;;;;;;3.53;1.23;;;;;;;13.13;100.00;99331.75;5089282;28;20187;-52
2022/07/16 00:56:49;;;;;;;5.97;1.13;;;;;;;13.11;100.00;99339.59;5089382;28;20059;-52
2022/07/16 00:59:15;;;;;;;3.33;1.30;;;;;;;13.02;100.00;99336.34;5092226;28;20048;-56
2022/07/16 01:01:42;;;;;;;4.00;1.27;;;;;;;13.04;100.00;99335.97;5092897;28;20059;-56
2022/07/16 01:04:10;;;;;;;2.88;0.85;;;;;;;12.98;100.00;99334.72;5092816;28;20070;-58
2022/07/16 01:06:36;;;;;;;3.47;1.40;;;;;;;12.92;100.00;99324.03;5092846;28;20048;-56
2022/07/16 01:09:03;;;;;;;7.47;1.20;;;;;;;12.86;100.00;99319.25;5092771;28;20078;-55
2022/07/16 01:11:31;;;;;;;2.05;1.05;;;;;;;12.89;100.00;99311.03;5092489;28;20052;-55
2022/07/16 01:13:58;;;;;;;4.88;1.50;;;;;;;12.87;100.00;99294.13;5092489;28;20044;-52
2022/07/16 01:16:24;;;;;;;2.15;0.93;;;;;;;12.93;100.00;99284.38;5092822;28;20047;-56
2022/07/16 01:18:51;;;;;;;1.45;1.08;;;;;;;12.91;100.00;99288.66;5092452;28;20048;-56
2022/07/16 01:21:19;;;;;;;1.02;0.98;;;;;;;12.91;100.00;99288.66;5092494;28;20138;-56
2022/07/16 01:23:47;;;;;;;3.80;1.58;;;;;;;12.87;100.00;99290.59;5092526;28;20051;-56
2022/07/16 01:26:14;;;;;;;3.58;1.00;;;;;;;12.82;100.00;99288.16;5092530;28;20086;-56
2022/07/16 01:28:40;;;;;;;1.85;0.90;;;;;;;12.81;100.00;99287.38;5092511;28;20059;-55
2022/07/16 01:31:06;;;;;;;3.17;1.05;;;;;;;12.76;100.00;99282.19;5092571;28;20435;-55
2022/07/16 01:33:37;;;;;;;1.17;1.08;;;;;;;12.81;100.00;99278.34;5092411;28;20478;-55
2022/07/16 01:36:06;;;;;;;3.55;1.10;;;;;;;12.81;100.00;99294.84;5092376;28;20479;-55
2022/07/16 01:38:32;;;;;;;2.50;1.23;;;;;;;12.78;100.00;99295.59;5092414;28;20051;-56
2022/07/16 01:41:00;;;;;;;4.32;1.10;;;;;;;12.66;100.00;99289.19;5092152;28;20055;-56
2022/07/16 01:43:28;;;;;;;3.22;1.35;;;;;;;12.68;100.00;99283.31;5092119;28;20052;-54
2022/07/16 01:45:56;;;;;;;8.05;1.40;;;;;;;12.68;100.00;99280.56;5092062;28;20429;-55
2022/07/16 01:48:23;;;;;;;3.63;1.67;;;;;;;12.57;100.00;99276.91;5092092;28;20503;-53
2022/07/16 01:50:50;;;;;;;4.82;1.30;;;;;;;12.48;100.00;99263.44;5092080;28;20060;-57
2022/07/16 01:53:16;;;;;;;5.97;1.40;;;;;;;12.56;100.00;99258.81;5091883;28;20135;-52
2022/07/16 01:55:42;;;;;;;5.60;1.00;;;;;;;12.45;100.00;99259.47;5091921;28;20105;-55
2022/07/16 01:58:11;;;;;;;4.15;1.20;;;;;;;12.59;100.00;99253.34;5092111;28;20134;-55
2022/07/16 02:00:40;;;;;;;3.30;1.17;;;;;;;12.54;100.00;99264.69;5092168;28;20048;-52
2022/07/16 02:03:06;;;;;;;2.05;1.33;;;;;;;12.54;100.00;99267.44;5091697;28;20052;-54
2022/07/16 02:05:33;;;;;;;4.85;1.20;;;;;;;12.46;100.00;99265.75;5092064;28;20096;-52
2022/07/16 02:07:59;;;;;;;2.97;1.35;;;;;;;12.27;100.00;99261.22;5091779;28;20047;-55
2022/07/16 02:10:25;;;;;;;2.35;1.02;;;;;;;12.47;100.00;99251.66;5091784;28;20044;-53
2022/07/16 02:12:52;;;;;;;5.15;1.10;;;;;;;12.46;100.00;99258.31;5091685;28;20100;-53
2022/07/16 02:15:19;;;;;;;4.15;1.20;;;;;;;12.45;100.00;99264.19;5091599;28;20114;-53
2022/07/16 02:17:45;;;;;;;6.43;1.42;;;;;;;12.43;100.00;99272.81;5091878;28;20056;-52
2022/07/16 02:20:12;;;;;;;1.27;1.08;;;;;;;12.34;100.00;99277.81;5091542;28;20048;-52
2022/07/16 02:22:39;;;;;;;3.30;2.03;;;;;;;12.43;100.00;99269.28;5091829;28;20051;-57
2022/07/16 02:25:07;;;;;;;1.23;0.80;;;;;;;12.50;100.00;99263.88;5091618;28;20143;-52
2022/07/16 02:27:34;;;;;;;1.70;1.08;;;;;;;12.37;100.00;99277.06;5091605;28;20472;-53
2022/07/16 02:30:00;;;;;;;4.18;1.55;;;;;;;12.62;100.00;99269.09;5091455;28;20048;-55
2022/07/16 02:32:28;;;;;;;4.10;1.05;;;;;;;12.67;100.00;99288.03;5091751;28;20100;-53
2022/07/16 02:34:54;;;;;;;3.17;1.15;;;;;;;12.67;100.00;99295.50;5091270;28;20059;-52
2022/07/16 02:37:20;;;;;;;4.72;0.90;;;;;;;12.58;100.00;99309.50;5091669;28;20070;-52
2022/07/16 02:39:47;;;;;;;4.00;1.23;;;;;;;12.50;100.00;99321.59;5091239;28;20566;-52
2022/07/16 02:42:13;;;;;;;6.30;1.08;;;;;;;12.94;100.00;99324.47;5091327;28;20481;-56
2022/07/16 02:44:39;;;;;;;3.08;1.08;;;;;;;13.49;100.00;99343.13;5091340;28;20139;-53
2022/07/16 02:47:05;;;;;;;2.85;0.80;;;;;;;13.88;100.00;99406.03;5091178;28;20139;-52
2022/07/16 02:49:32;;;;;;;1.38;0.90;;;;;;;14.11;100.00;99456.25;5091228;28;20052;-53
2022/07/16 02:51:58;;;;;;;4.10;1.13;;;;;;;14.63;100.00;99472.81;5091065;28;20510;-54
2022/07/16 02:54:25;;;;;;;1.90;1.00;;;;;;;15.01;100.00;99451.31;5091058;28;20062;-54
2022/07/16 02:56:51;;;;;;;3.00;0.85;;;;;;;15.44;100.00;99405.31;5091031;28;20507;-52
2022/07/16 02:59:17;;;;;;;4.30;1.38;;;;;;;15.74;100.00;99301.94;5091387;28;20142;-53
2022/07/16 03:01:44;;;;;;;1.63;0.90;;;;;;;16.14;100.00;99220.47;5091000;28;20051;-52
2022/07/16 03:04:10;;;;;;;3.13;0.90;;;;;;;16.19;100.00;99033.94;5091058;28;20430;-56
2022/07/16 03:06:37;;;;;;;3.38;1.48;;;;;;;16.55;100.00;98954.22;5090847;28;20087;-55
2022/07/16 03:09:04;;;;;;;2.15;0.82;;;;;;;16.93;100.00;98826.88;5091016;28;20135;-52
2022/07/16 03:11:30;;;;;;;4.45;0.90;;;;;;;17.08;100.00;98695.31;5090759;28;20059;-53
2022/07/16 03:13:56;;;;;;;2.30;0.75;;;;;;;17.48;100.00;98620.63;5090762;28;20131;-54
2022/07/16 03:16:23;;;;;;;1.38;0.90;;;;;;;17.63;100.00;98505.50;5090747;28;20400;-53
2022/07/16 03:18:49;;;;;;;2.33;0.95;;;;;;;17.97;100.00;98398.25;5090871;28;20175;-55
2022/07/16 03:21:15;;;;;;;2.25;1.00;;;;;;;18.05;100.00;98335.84;5090029;28;20639;-53
2022/07/16 03:23:42;;;;;;;2.75;0.95;;;;;;;18.58;100.00;98309.44;5090969;28;20117;-53
2022/07/16 03:26:08;;;;;;;1.73;0.70;;;;;;;18.64;100.00;98240.28;5091103;28;20510;-55
2022/07/16 03:28:36;;;;;;;3.20;1.23;;;;;;;18.89;100.00;98163.78;5090476;28;20135;-53
2022/07/16 03:31:02;;;;;;;11.82;1.45;;;;;;;18.94;100.00;98116.81;5090784;28;20056;-53
2022/07/16 03:33:28;;;;;;;9.93;1.60;;;;;;;19.13;100.00;98103.88;5090318;28;20056;-55
2022/07/16 03:35:55;;;;;;;1.92;0.90;;;;;;;19.20;100.00;98072.31;5090682;28;20094;-53
2022/07/16 03:41:06;;;;;;;7.20;1.27;;;;;;;19.72;100.00;98048.63;5090403;28;20561;-54
2022/07/16 03:43:32;;;;;;;2.92;1.10;;;;;;;19.48;100.00;98051.84;5090355;28;20105;-55
2022/07/16 03:45:58;;;;;;;3.28;1.20;;;;;;;19.70;100.00;98040.75;5090424;28;20044;-54
2022/07/16 03:48:25;;;;;;;1.50;0.80;;;;;;;19.94;100.00;98026.38;5090273;28;20043;-55
2022/07/16 03:50:51;;;;;;;2.92;0.82;;;;;;;19.75;100.00;98025.47;5090246;28;20086;-53
2022/07/16 03:53:17;;;;;;;2.38;0.77;;;;;;;19.72;100.00;98026.38;5090440;28;20047;-55
2022/07/16 03:55:43;;;;;;;3.42;1.30;;;;;;;20.15;100.00;98002.50;5090155;28;20052;-55
2022/07/16 03:58:10;;;;;;;4.72;1.10;;;;;;;20.47;100.00;98006.03;5090429;28;20048;-53
2022/07/16 04:00:36;;;;;;;3.60;1.10;;;;;;;20.73;100.00;98012.16;5090143;28;20116;-53
2022/07/16 04:03:03;;;;;;;3.63;0.90;;;;;;;20.91;100.00;98012.16;5090272;28;20048;-55
2022/07/16 04:05:29;;;;;;;1.35;0.77;;;;;;;20.83;100.00;98019.28;5090066;28;20044;-55
2022/07/16 04:07:56;;;;;;;2.15;1.10;;;;;;;21.26;100.00;98023.00;5089947;28;20063;-56
2022/07/16 04:10:22;;;;;;;4.00;1.30;;;;;;;21.11;100.00;98020.06;5089956;28;20566;-53
2022/07/16 04:12:48;;;;;;;4.47;1.00;;;;;;;21.73;100.00;98030.13;5089891;28;20571;-56
2022/07/16 04:15:15;;;;;;;7.22;1.25;;;;;;;21.41;100.00;98049.06;5089685;28;20048;-56
2022/07/16 04:17:41;;;;;;;3.25;1.27;;;;;;;21.73;100.00;98060.81;5089777;28;20058;-54
2022/07/16 04:20:08;;;;;;;4.93;1.30;;;;;;;21.74;100.00;98070.72;5089755;28;20055;-54
2022/07/16 04:22:35;;;;;;;2.72;0.95;;;;;;;21.92;100.00;98067.13;5089731;28;20066;-53
2022/07/16 04:25:01;;;;;;;2.25;1.10;;;;;;;21.66;100.00;98072.28;5089660;28;20056;-55
2022/07/16 04:27:27;;;;;;;5.32;0.98;;;;;;;22.33;100.00;98101.94;5089694;28;20048;-55
2022/07/16 04:29:53;;;;;;;2.58;1.17;;;;;;;22.17;100.00;98119.81;5089890;28;20096;-57
2022/07/16 04:32:21;;;;;;;4.82;1.20;;;;;;;21.84;100.00;98100.94;5091155;28;20058;-56
2022/07/16 04:34:47;;;;;;;4.03;1.20;;;;;;;21.93;100.00;98086.19;5093283;28;20052;-54
2022/07/16 04:37:13;;;;;;;1.50;1.00;;;;;;;22.21;100.00;98108.47;5093583;28;20139;-57
2022/07/16 04:39:40;;;;;;;3.67;1.48;;;;;;;22.27;100.00;98129.72;5093440;28;20832;-54
2022/07/16 04:42:06;;;;;;;2.90;1.30;;;;;;;22.41;100.00;98174.97;5093208;28;20431;-57
2022/07/16 04:44:33;;;;;;;2.85;1.35;;;;;;;22.69;100.00;98156.09;5093415;28;20052;-56
2022/07/16 04:46:59;;;;;;;3.28;1.20;;;;;;;22.88;100.00;98191.13;5093279;28;20055;-57
2022/07/16 04:49:26;;;;;;;2.85;1.42;;;;;;;22.99;100.00;98176.66;5093155;28;20192;-56
2022/07/16 04:51:52;;;;;;;2.45;1.30;;;;;;;23.31;100.00;98217.03;5093115;28;20044;-58
2022/07/16 04:54:18;;;;;;;2.65;1.30;;;;;;;23.42;100.00;98224.91;5092865;28;20056;-57
2022/07/16 04:56:44;;;;;;;1.95;0.95;;;;;;;23.49;100.00;98238.53;5093220;28;20132;-58
2022/07/16 04:59:11;;;;;;;3.78;1.10;;;;;;;23.23;100.00;98233.41;5092874;28;20055;-57
2022/07/16 05:01:37;;;;;;;2.75;1.20;;;;;;;23.30;100.00;98254.66;5093003;28;20507;-57
2022/07/16 05:04:03;;;;;;;2.55;1.02;;;;;;;23.48;100.00;98257.34;5092718;28;20056;-58
2022/07/16 05:06:30;;;;;;;1.60;0.90;;;;;;;23.77;100.00;98236.38;5092801;28;20056;-58
2022/07/16 05:08:57;;;;;;;2.78;1.67;;;;;;;23.08;100.00;98214.97;5092698;28;20051;-58
2022/07/16 05:11:23;;;;;;;6.95;1.48;;;;;;;23.70;100.00;98214.34;5092933;28;20052;-58
2022/07/16 05:13:52;;;;;;;3.78;1.30;;;;;;;23.90;100.00;98276.09;5092482;28;20062;-57
2022/07/16 05:16:18;;;;;;;2.75;1.20;;;;;;;23.93;100.00;98282.75;5092567;28;20052;-57
2022/07/16 05:18:45;;;;;;;3.03;1.40;;;;;;;24.13;100.00;98288.53;5092933;28;20052;-57
2022/07/16 05:21:11;;;;;;;4.55;1.45;;;;;;;24.18;100.00;98293.44;5092582;28;20120;-54
2022/07/16 05:23:38;;;;;;;4.57;1.20;;;;;;;24.54;100.00;98299.25;5092437;28;20055;-55
2022/07/16 05:26:04;;;;;;;2.70;1.48;;;;;;;24.56;100.00;98317.16;5092512;28;20052;-55
2022/07/16 05:28:30;;;;;;;3.95;1.55;;;;;;;24.56;100.00;98339.56;5092522;28;20134;-57
2022/07/16 05:30:57;;;;;;;2.80;1.63;;;;;;;24.49;100.00;98323.13;5092290;28;20044;-55
2022/07/16 05:33:23;;;;;;;3.80;1.33;;;;;;;25.08;100.00;98337.16;5092255;28;20048;-56
2022/07/16 05:35:49;;;;;;;2.13;1.15;;;;;;;24.87;100.00;98347.53;5092292;28;20052;-55
2022/07/16 05:38:16;;;;;;;2.28;1.20;;;;;;;25.30;100.00;98376.09;5092345;28;20426;-59
2022/07/16 05:40:43;;;;;;;3.20;1.45;;;;;;;24.56;100.00;98366.81;5092216;28;20062;-56
2022/07/16 05:43:10;;;;;;;2.80;1.20;;;;;;;25.10;100.00;98361.94;5092126;28;20067;-54
2022/07/16 05:45:37;;;;;;;3.38;1.38;;;;;;;25.32;100.00;98364.38;5092100;28;20466;-56
2022/07/16 05:48:04;;;;;;;3.92;1.13;;;;;;;25.60;100.00;98376.06;5092380;28;20075;-56
2022/07/16 05:50:30;;;;;;;3.35;1.20;;;;;;;25.62;100.00;98398.00;5092441;28;20531;-56
2022/07/16 05:52:56;;;;;;;3.47;1.13;;;;;;;25.59;100.00;98414.59;5092268;28;20434;-57
2022/07/16 05:55:23;;;;;;;2.72;1.00;;;;;;;25.83;100.00;98402.47;5092273;28;20052;-56
2022/07/16 05:57:49;;;;;;;2.08;1.25;;;;;;;25.90;100.00;98432.19;5092109;28;20101;-55
2022/07/16 06:00:16;;;;;;;4.20;1.33;;;;;;;26.15;100.00;98458.84;5092448;28;20044;-56
2022/07/16 06:02:43;;;;;;;3.25;1.08;;;;;;;26.02;100.00;98445.13;5092102;28;20471;-55
2022/07/16 06:05:10;;;;;;;5.05;1.30;;;;;;;26.37;100.00;98424.69;5091793;28;20578;-55
2022/07/16 06:07:36;;;;;;;4.45;1.58;;;;;;;26.48;100.00;98442.47;5091893;28;20135;-56
2022/07/16 06:10:03;;;;;;;5.20;1.60;;;;;;;25.93;100.00;98436.81;5092090;28;20051;-57
2022/07/16 06:12:29;;;;;;;4.05;1.30;;;;;;;26.07;100.00;98447.25;5091920;28;20059;-55
2022/07/16 06:14:56;;;;;;;2.53;1.13;;;;;;;26.24;100.00;98437.03;5091844;28;20058;-55
2022/07/16 06:17:22;;;;;;;3.88;1.35;;;;;;;26.21;100.00;98420.38;5091737;28;20495;-57
2022/07/16 06:19:49;;;;;;;2.35;1.20;;;;;;;26.57;100.00;98427.53;5091499;28;20071;-57
2022/07/16 06:22:15;;;;;;;3.95;1.23;;;;;;;26.39;100.00;98442.59;5091985;28;20101;-56
2022/07/16 06:24:41;;;;;;;2.20;1.00;;;;;;;26.73;100.00;98476.78;5091512;28;20096;-57
2022/07/16 06:27:07;;;;;;;2.45;1.13;;;;;;;26.79;100.00;98476.84;5091841;28;20054;-57
2022/07/16 06:29:34;;;;;;;3.78;1.33;;;;;;;26.71;100.00;98493.38;5091762;28;20052;-57
2022/07/16 06:32:01;;;;;;;4.43;1.10;;;;;;;26.25;100.00;98483.50;5091565;28;20058;-56
2022/07/16 06:34:27;;;;;;;5.28;1.27;;;;;;;25.33;100.00;98472.53;5091414;28;20052;-56
2022/07/16 06:36:53;;;;;;;2.28;0.90;;;;;;;25.19;100.00;98442.41;5091813;28;20191;-57
2022/07/16 06:39:19;;;;;;;3.05;1.30;;;;;;;25.04;100.00;98450.81;5091416;28;20476;-57
2022/07/16 06:41:45;;;;;;;5.13;1.20;;;;;;;25.42;100.00;98474.47;5091137;28;20503;-57
2022/07/16 06:44:12;;;;;;;1.92;1.30;;;;;;;24.98;100.00;98458.31;5091590;28;20052;-52
2022/07/16 06:46:38;;;;;;;2.63;1.40;;;;;;;25.38;100.00;98445.84;5091241;28;20056;-54
2022/07/16 06:49:05;;;;;;;3.58;1.60;;;;;;;26.14;100.00;98423.59;5091431;28;20055;-56
2022/07/16 06:51:31;;;;;;;2.40;1.00;;;;;;;25.89;100.00;98481.16;5090963;28;20051;-53
2022/07/16 06:53:58;;;;;;;3.67;1.10;;;;;;;26.37;100.00;98487.25;5091264;28;20050;-55
2022/07/16 06:56:24;;;;;;;2.95;1.17;;;;;;;26.88;100.00;98572.31;5089768;28;20109;-57
2022/07/16 06:58:50;;;;;;;2.28;1.05;;;;;;;26.94;100.00;98534.56;5091121;28;20109;-57
2022/07/16 07:01:16;;;;;;;3.25;1.23;;;;;;;25.74;100.00;98556.94;5090811;28;20052;-56
2022/07/16 07:03:43;;;;;;;3.75;1.13;;;;;;;24.83;100.00;98483.53;5090904;28;20087;-56
2022/07/16 07:06:10;;;;;;;3.63;1.40;;;;;;;25.55;100.00;98455.31;5091031;28;20062;-53
2022/07/16 07:08:36;;;;;;;3.40;1.23;;;;;;;26.37;100.00;98486.50;5091019;28;20136;-56
2022/07/16 07:11:02;;;;;;;2.78;1.52;;;;;;;26.33;100.00;98494.38;5091158;28;20104;-55
2022/07/16 07:13:30;;;;;;;2.15;1.25;;;;;;;26.69;100.00;98544.47;5090513;28;20143;-57
2022/07/16 07:15:57;;;;;;;2.17;1.25;;;;;;;26.51;100.00;98550.34;5090649;28;20055;-57
2022/07/16 07:18:23;;;;;;;3.03;1.20;;;;;;;27.32;100.00;98548.84;5090604;28;20059;-57
2022/07/16 07:20:49;;;;;;;7.50;1.20;;;;;;;27.88;100.00;98588.91;5091164;28;20074;-57
2022/07/16 07:23:16;;;;;;;1.80;1.00;;;;;;;28.29;100.00;98577.47;5090532;28;20059;-57
2022/07/16 07:25:43;;;;;;;2.28;1.13;;;;;;;27.98;100.00;98617.69;5090669;28;20052;-57
2022/07/16 07:28:09;;;;;;;2.90;0.90;;;;;;;27.61;100.00;98619.06;5090755;28;20135;-58
2022/07/16 07:30:35;;;;;;;4.32;0.98;;;;;;;28.48;100.00;98620.19;5090628;28;20062;-57
2022/07/16 07:33:01;;;;;;;3.20;1.08;;;;;;;28.25;100.00;98638.94;5090422;28;20472;-57
2022/07/16 07:35:28;;;;;;;1.45;1.17;;;;;;;27.92;100.00;98615.59;5090578;28;20504;-58
2022/07/16 07:37:54;;;;;;;2.22;1.00;;;;;;;29.15;100.00;98617.06;5090571;28;20050;-57
2022/07/16 07:40:21;;;;;;;3.50;1.27;;;;;;;29.20;100.00;98630.44;5090626;28;20048;-56
2022/07/16 07:42:47;;;;;;;1.90;1.05;;;;;;;28.87;100.00;98612.00;5090711;28;20151;-57
2022/07/16 07:45:13;;;;;;;2.75;1.35;;;;;;;29.05;100.00;98608.03;5090239;28;20059;-58
2022/07/16 07:47:40;;;;;;;3.95;1.30;;;;;;;28.99;100.00;98605.16;5090594;28;20056;-59
2022/07/16 07:50:09;;;;;;;3.22;1.08;;;;;;;28.38;100.00;98591.38;5090361;28;20048;-59
2022/07/16 07:52:35;;;;;;;4.18;1.30;;;;;;;27.43;100.00;98557.44;5090259;28;20091;-56
2022/07/16 07:55:01;;;;;;;2.45;1.25;;;;;;;26.44;100.00;98523.38;5090128;28;20054;-55
2022/07/16 07:57:29;;;;;;;2.67;1.23;;;;;;;25.63;100.00;98487.34;5090350;28;20048;-56
2022/07/16 07:59:55;;;;;;;5.80;1.50;;;;;;;24.76;100.00;98441.81;5090002;28;20414;-57
2022/07/16 08:02:21;;;;;;;4.95;1.45;;;;;;;24.22;100.00;98396.88;5090284;28;20096;-55
2022/07/16 08:04:47;;;;;;;5.75;1.48;;;;;;;23.79;100.00;98364.63;5089897;28;20426;-56
2022/07/16 08:07:13;;;;;;;5.30;1.42;;;;;;;25.17;100.00;98389.63;5089643;28;20044;-53
2022/07/16 08:09:40;;;;;;;5.05;1.30;;;;;;;25.81;100.00;98494.81;5090376;28;20477;-54
2022/07/16 08:12:06;;;;;;;2.90;1.35;;;;;;;26.27;100.00;98475.38;5090131;28;20151;-56
2022/07/16 08:14:33;;;;;;;3.58;1.55;;;;;;;26.32;100.00;98513.25;5090184;28;20079;-55
2022/07/16 08:16:59;;;;;;;3.10;1.30;;;;;;;25.81;100.00;98472.38;5090043;28;20093;-56
2022/07/16 08:19:26;;;;;;;3.53;1.35;;;;;;;25.52;100.00;98487.16;5090003;28;20048;-56
2022/07/16 08:21:53;;;;;;;2.03;1.20;;;;;;;24.91;100.00;98503.56;5089690;28;20052;-53
2022/07/16 08:27:05;;;;;;;4.70;1.58;;;;;;;25.05;100.00;98474.78;5089814;28;20093;-53
2022/07/16 08:29:31;;;;;;;2.17;1.55;;;;;;;26.19;100.00;98496.72;5089542;28;20059;-52
2022/07/16 08:31:58;;;;;;;5.32;1.42;;;;;;;25.38;100.00;98502.72;5089619;28;20056;-52
2022/07/16 08:34:24;;;;;;;5.30;1.30;;;;;;;26.52;100.00;98492.84;5089523;28;20058;-56
2022/07/16 08:36:51;;;;;;;3.75;1.35;;;;;;;26.11;100.00;98469.50;5089972;28;20491;-53
2022/07/16 08:39:17;;;;;;;4.22;1.58;;;;;;;25.90;100.00;98466.66;5089458;28;20062;-55
2022/07/16 08:41:44;;;;;;;3.08;1.42;;;;;;;26.66;100.00;98489.22;5089886;28;20044;-56
2022/07/16 08:44:12;;;;;;;5.68;1.33;;;;;;;27.79;100.00;98504.56;5089466;28;20408;-55
2022/07/16 08:46:38;;;;;;;2.97;1.10;;;;;;;26.90;100.00;98522.00;5089706;28;20052;-55
2022/07/16 08:49:05;;;;;;;3.20;1.17;;;;;;;26.09;100.00;98486.06;5089451;28;20055;-56
2022/07/16 08:51:34;;;;;;;4.88;1.33;;;;;;;25.43;100.00;98439.56;5089478;28;20142;-56
2022/07/16 08:54:04;;;;;;;3.22;1.00;;;;;;;25.38;100.00;98471.09;5089228;28;20062;-56
2022/07/16 08:56:31;;;;;;;5.05;1.30;;;;;;;25.13;100.00;98433.94;5089438;28;20044;-57
2022/07/16 08:58:59;;;;;;;2.85;1.00;;;;;;;24.44;100.00;98463.84;5089529;28;20058;-54
2022/07/16 09:01:29;;;;;;;2.20;1.30;;;;;;;24.09;100.00;98424.34;5089365;28;20044;-55
2022/07/16 09:03:56;;;;;;;5.80;1.30;;;;;;;23.59;100.00;98421.91;5089966;28;20048;-54
2022/07/16 09:06:24;;;;;;;3.15;1.40;;;;;;;24.05;100.00;98392.94;5089226;28;20051;-56
2022/07/16 09:08:51;;;;;;;2.38;1.20;;;;;;;23.84;100.00;98345.16;5089219;28;20056;-56
2022/07/16 09:11:18;;;;;;;8.48;1.25;;;;;;;24.38;100.00;98376.09;5089223;28;20047;-55
2022/07/16 09:14:04;;;;;;;2.70;1.25;;;;;;;23.93;100.00;98398.28;5089063;28;20583;-55
2022/07/16 09:16:31;;;;;;;4.95;1.40;;;;;;;23.43;100.00;98346.72;5089297;28;20059;-56
2022/07/16 09:19:07;;;;;;;3.80;1.50;;;;;;;23.01;100.00;98309.09;5090078;28;20666;-56
2022/07/16 09:21:34;;;;;;;3.33;1.40;;;;;;;22.80;100.00;98268.16;5092588;28;20056;-53
2022/07/16 09:24:01;;;;;;;4.03;1.77;;;;;;;22.68;100.00;98308.22;5092332;28;20055;-54
2022/07/16 09:26:28;;;;;;;2.60;1.20;;;;;;;23.14;100.00;98327.72;5092437;28;20050;-56
2022/07/16 09:28:55;;;;;;;3.90;1.45;;;;;;;24.26;100.00;98321.06;5092398;28;20511;-55
2022/07/16 09:31:34;;;;;;;2.97;1.33;;;;;;;24.90;100.00;98427.09;5092844;28;20048;-55
2022/07/16 09:34:02;;;;;;;3.30;1.35;;;;;;;25.01;100.00;98443.34;5092407;28;20548;-56
2022/07/16 09:36:29;;;;;;;2.53;1.40;;;;;;;24.67;100.00;98444.72;5092617;28;20112;-56
2022/07/16 09:38:56;;;;;;;4.38;1.30;;;;;;;24.75;100.00;98385.00;5092645;28;20163;-56
2022/07/16 09:41:23;;;;;;;2.80;1.40;;;;;;;24.53;100.00;98461.00;5092352;28;20051;-55
2022/07/16 09:43:49;;;;;;;2.78;1.30;;;;;;;25.04;100.00;98440.34;5092580;28;20048;-55
2022/07/16 09:46:18;;;;;;;4.55;1.23;;;;;;;24.69;100.00;98440.16;5092343;28;20399;-56
2022/07/16 09:48:44;;;;;;;3.97;1.25;;;;;;;24.97;100.00;98414.72;5092495;28;20138;-56
2022/07/16 09:51:17;;;;;;;3.35;1.60;;;;;;;24.94;100.00;98441.69;5092166;28;20052;-56
2022/07/16 09:53:43;;;;;;;4.82;1.50;;;;;;;24.58;100.00;98462.34;5092258;28;20055;-56
2022/07/16 09:56:13;;;;;;;3.42;1.48;;;;;;;24.86;100.00;98479.78;5091945;28;20529;-55
2022/07/16 09:58:40;;;;;;;3.55;1.63;;;;;;;25.04;100.00;98490.06;5091899;28;20048;-56
2022/07/16 10:01:06;;;;;;;4.68;1.10;;;;;;;24.25;100.00;98473.56;5091815;28;20067;-54
2022/07/16 10:03:34;;;;;;;1.77;1.20;;;;;;;23.89;100.00;98450.09;5091830;28;20056;-55
2022/07/16 10:06:00;;;;;;;4.05;1.42;;;;;;;24.70;100.00;98429.75;5091764;28;20476;-55
2022/07/16 10:08:26;;;;;;;2.20;1.20;;;;;;;25.21;100.00;98477.16;5091822;28;20055;-56
2022/07/16 10:10:52;;;;;;;2.00;1.35;;;;;;;25.74;100.00;98476.31;5091986;28;20052;-55
2022/07/16 10:13:26;;;;;;;4.30;1.30;;;;;;;26.13;100.00;98490.25;5091588;28;20092;-55
2022/07/16 10:15:54;;;;;;;3.40;1.30;;;;;;;25.93;100.00;98468.50;5091922;28;20055;-55
2022/07/16 10:18:36;;;;;;;2.33;1.17;;;;;;;25.26;100.00;98487.72;5091651;28;20117;-53
2022/07/16 10:21:12;;;;;;;3.67;1.30;;;;;;;25.38;100.00;98474.66;5091677;28;20564;-53
2022/07/16 10:23:40;;;;;;;2.67;1.40;;;;;;;25.00;100.00;98469.84;5091488;28;20044;-54
2022/07/16 10:26:10;;;;;;;3.88;1.20;;;;;;;24.88;100.00;98468.84;5091677;28;20429;-55
2022/07/16 10:28:40;;;;;;;2.00;1.30;;;;;;;23.80;100.00;98453.72;5091908;28;20048;-52
2022/07/16 10:31:38;;;;;;;3.17;1.30;;;;;;;23.56;100.00;98511.56;5091284;28;20054;-56
2022/07/16 10:34:38;;;;;;;2.28;1.10;;;;;;;23.05;100.00;98499.03;5091644;28;20048;-55
2022/07/16 10:37:08;;;;;;;2.15;1.20;;;;;;;23.18;100.00;98476.50;5091537;28;20055;-54
2022/07/16 10:39:34;;;;;;;4.45;1.40;;;;;;;22.34;100.00;98468.50;5091149;28;20066;-54
2022/07/16 10:42:02;;;;;;;4.28;1.30;;;;;;;21.85;100.00;98490.28;5091507;28;20052;-52
2022/07/16 10:44:44;;;;;;;2.70;1.15;;;;;;;21.80;100.00;98482.53;5091210;28;20146;-53
2022/07/16 10:47:11;;;;;;;3.13;1.27;;;;;;;21.51;100.00;98392.81;5091525;28;20044;-54
2022/07/16 10:49:37;;;;;;;4.45;1.67;;;;;;;21.08;100.00;98221.63;5091367;28;20573;-54
2022/07/16 10:52:05;;;;;;;6.10;1.30;;;;;;;20.29;100.00;98071.50;5091382;28;20570;-52
2022/07/16 10:54:35;;;;;;;1.63;1.00;;;;;;;19.56;100.00;98057.94;5091051;28;20083;-53
2022/07/16 10:57:03;;;;;;;2.47;1.80;;;;;;;18.76;100.00;97997.19;5091431;28;20062;-52
2022/07/16 10:59:31;;;;;;;3.28;1.33;;;;;;;18.50;100.00;98046.44;5090948;28;20056;-53
2022/07/16 11:02:00;;;;;;;2.95;1.42;;;;;;;18.15;100.00;98187.00;5091071;28;20059;-52
2022/07/16 11:04:32;;;;;;;1.95;1.40;;;;;;;17.97;100.00;98332.47;5091122;28;20128;-54
2022/07/16 11:06:59;;;;;;;6.82;1.52;;;;;;;17.78;100.00;98475.50;5090877;28;20153;-54
2022/07/16 11:09:27;;;;;;;5.32;2.50;;;;;;;17.54;100.00;98679.91;5091059;28;20048;-54
2022/07/16 11:11:55;;;;;;;3.97;1.65;;;;;;;17.20;100.00;98906.47;5090731;28;20052;-50
2022/07/16 11:14:29;;;;;;;2.83;1.60;;;;;;;17.23;100.00;98983.97;5090772;28;20052;-50
2022/07/16 11:16:56;;;;;;;3.45;1.50;;;;;;;17.22;100.00;99029.47;5091013;28;20474;-51
2022/07/16 11:19:23;;;;;;;6.18;1.88;;;;;;;17.33;100.00;99005.22;5090970;28;20080;-51
2022/07/16 11:21:57;;;;;;;2.90;1.20;;;;;;;17.01;100.00;99018.66;5090727;28;20116;-55
2022/07/16 11:24:24;;;;;;;2.08;1.38;;;;;;;17.22;100.00;99006.53;5090606;28;20056;-51
2022/07/16 11:26:51;;;;;;;2.95;1.70;;;;;;;17.17;100.00;98991.94;5090861;28;20052;-52
2022/07/16 11:29:19;;;;;;;3.97;1.70;;;;;;;17.29;100.00;98937.19;5090590;28;20079;-50
2022/07/16 11:31:46;;;;;;;5.10;1.50;;;;;;;18.12;100.00;99018.03;5090817;28;20055;-51